sensor_id;sensor_type;location;lat;lon;timestamp;temperature;humidity
5689;DHT22;2869;50.432;8.680;2022-08-19T00:00:02;21.00;99.90
5689;DHT22;2869;50.432;8.680;2022-08-19T00:02:29;21.00;99.90
5689;DHT22;2869;50.432;8.680;2022-08-19T00:04:55;21.00;99.90
5689;DHT22;2869;50.432;8.680;2022-08-19T00:07:22;21.00;99.90
5689;DHT22;2869;50.432;8.680;2022-08-19T00:09:48;21.00;99.90
5689;DHT22;2869;50.432;8.680;2022-08-19T00:12:16;21.00;99.90
5689;DHT22;2869;50.432;8.680;2022-08-19T00:14:43;21.00;99.90
5689;DHT22;2869;50.432;8.680;2022-08-19T00:17:10;21.00;99.90
5689;DHT22;2869;50.432;8.680;2022-08-19T00:19:37;21.10;99.90
5689;DHT22;2869;50.432;8.680;2022-08-19T00:22:04;21.10;99.90
5689;DHT22;2869;50.432;8.680;2022-08-19T00:24:31;21.10;99.90
5689;DHT22;2869;50.432;8.680;2022-08-19T00:26:58;21.10;99.90
5689;DHT22;2869;50.432;8.680;2022-08-19T00:29:28;21.10;99.90
5689;DHT22;2869;50.432;8.680;2022-08-19T00:31:55;21.10;99.90
5689;DHT22;2869;50.432;8.680;2022-08-19T00:34:24;21.20;99.90
5689;DHT22;2869;50.432;8.680;2022-08-19T00:36:51;21.10;99.90
5689;DHT22;2869;50.432;8.680;2022-08-19T00:39:18;21.10;99.90
5689;DHT22;2869;50.432;8.680;2022-08-19T00:41:45;21.10;99.90
5689;DHT22;2869;50.432;8.680;2022-08-19T00:44:15;21.10;99.90
5689;DHT22;2869;50.432;8.680;2022-08-19T00:46:45;21.10;99.90
5689;DHT22;2869;50.432;8.680;2022-08-19T00:49:17;21.00;99.90
5689;DHT22;2869;50.432;8.680;2022-08-19T00:51:47;21.00;99.90
5689;DHT22;2869;50.432;8.680;2022-08-19T00:54:15;21.00;99.90
5689;DHT22;2869;50.432;8.680;2022-08-19T00:56:42;21.00;99.90
5689;DHT22;2869;50.432;8.680;2022-08-19T00:59:09;21.00;99.90
5689;DHT22;2869;50.432;8.680;2022-08-19T01:01:37;21.00;99.90
5689;DHT22;2869;50.432;8.680;2022-08-19T01:04:05;21.00;99.90
5689;DHT22;2869;50.432;8.680;2022-08-19T01:06:33;20.90;99.90
5689;DHT22;2869;50.432;8.680;2022-08-19T01:09:01;20.90;99.90
5689;DHT22;2869;50.432;8.680;2022-08-19T01:11:30;20.90;99.90
5689;DHT22;2869;50.432;8.680;2022-08-19T01:13:58;20.90;99.90
5689;DHT22;2869;50.432;8.680;2022-08-19T01:16:27;20.90;99.90
5689;DHT22;2869;50.432;8.680;2022-08-19T01:18:55;20.80;99.90
5689;DHT22;2869;50.432;8.680;2022-08-19T01:21:28;20.80;99.90
5689;DHT22;2869;50.432;8.680;2022-08-19T01:23:59;20.80;99.90
5689;DHT22;2869;50.432;8.680;2022-08-19T01:26:26;20.80;99.90
5689;DHT22;2869;50.432;8.680;2022-08-19T01:28:56;20.80;99.90
5689;DHT22;2869;50.432;8.680;2022-08-19T01:31:25;20.80;99.90
5689;DHT22;2869;50.432;8.680;2022-08-19T01:33:53;20.80;99.90
5689;DHT22;2869;50.432;8.680;2022-08-19T01:36:24;20.70;99.90
5689;DHT22;2869;50.432;8.680;2022-08-19T01:38:51;20.70;99.90
5689;DHT22;2869;50.432;8.680;2022-08-19T01:41:20;20.80;99.90
5689;DHT22;2869;50.432;8.680;2022-08-19T01:43:49;20.80;99.90
5689;DHT22;2869;50.432;8.680;2022-08-19T01:46:15;20.70;99.90
5689;DHT22;2869;50.432;8.680;2022-08-19T01:48:43;20.70;99.90
5689;DHT22;2869;50.432;8.680;2022-08-19T01:51:11;20.70;99.90
5689;DHT22;2869;50.432;8.680;2022-08-19T01:53:38;20.70;99.90
5689;DHT22;2869;50.432;8.680;2022-08-19T01:56:05;20.70;99.90
5689;DHT22;2869;50.432;8.680;2022-08-19T01:58:36;20.70;99.90
5689;DHT22;2869;50.432;8.680;2022-08-19T02:01:05;20.60;99.90
5689;DHT22;2869;50.432;8.680;2022-08-19T02:03:32;20.60;99.90
5689;DHT22;2869;50.432;8.680;2022-08-19T02:06:01;20.60;99.90
5689;DHT22;2869;50.432;8.680;2022-08-19T02:08:30;20.60;99.90
5689;DHT22;2869;50.432;8.680;2022-08-19T02:10:57;20.50;99.90
5689;DHT22;2869;50.432;8.680;2022-08-19T02:13:25;20.50;99.90
5689;DHT22;2869;50.432;8.680;2022-08-19T02:15:53;20.50;99.90
5689;DHT22;2869;50.432;8.680;2022-08-19T02:18:20;20.40;99.90
5689;DHT22;2869;50.432;8.680;2022-08-19T02:20:47;20.40;99.90
5689;DHT22;2869;50.432;8.680;2022-08-19T02:23:15;20.30;99.90
5689;DHT22;2869;50.432;8.680;2022-08-19T02:25:43;20.30;99.90
5689;DHT22;2869;50.432;8.680;2022-08-19T02:28:10;20.30;99.90
5689;DHT22;2869;50.432;8.680;2022-08-19T02:30:37;20.20;99.90
5689;DHT22;2869;50.432;8.680;2022-08-19T02:33:05;20.30;99.90
5689;DHT22;2869;50.432;8.680;2022-08-19T02:35:32;20.20;99.90
5689;DHT22;2869;50.432;8.680;2022-08-19T02:37:58;20.20;99.90
5689;DHT22;2869;50.432;8.680;2022-08-19T02:40:48;20.20;99.90
5689;DHT22;2869;50.432;8.680;2022-08-19T02:43:17;20.20;99.90
5689;DHT22;2869;50.432;8.680;2022-08-19T02:45:45;20.20;99.90
5689;DHT22;2869;50.432;8.680;2022-08-19T02:48:15;20.20;99.90
5689;DHT22;2869;50.432;8.680;2022-08-19T02:50:43;20.20;99.90
5689;DHT22;2869;50.432;8.680;2022-08-19T02:53:10;20.20;99.90
5689;DHT22;2869;50.432;8.680;2022-08-19T02:55:43;20.20;99.90
5689;DHT22;2869;50.432;8.680;2022-08-19T02:58:10;20.20;99.90
5689;DHT22;2869;50.432;8.680;2022-08-19T03:00:41;20.20;99.90
5689;DHT22;2869;50.432;8.680;2022-08-19T03:03:09;20.10;99.90
5689;DHT22;2869;50.432;8.680;2022-08-19T03:05:37;20.10;99.90
5689;DHT22;2869;50.432;8.680;2022-08-19T03:08:04;20.10;99.90
5689;DHT22;2869;50.432;8.680;2022-08-19T03:10:31;20.10;99.90
5689;DHT22;2869;50.432;8.680;2022-08-19T03:12:57;20.00;99.90
5689;DHT22;2869;50.432;8.680;2022-08-19T03:15:24;19.90;99.90
5689;DHT22;2869;50.432;8.680;2022-08-19T03:17:51;20.00;99.90
5689;DHT22;2869;50.432;8.680;2022-08-19T03:20:18;19.90;99.90
5689;DHT22;2869;50.432;8.680;2022-08-19T03:22:46;20.00;99.90
5689;DHT22;2869;50.432;8.680;2022-08-19T03:25:13;20.00;99.90
5689;DHT22;2869;50.432;8.680;2022-08-19T03:27:39;20.00;99.90
5689;DHT22;2869;50.432;8.680;2022-08-19T03:30:07;20.00;99.90
5689;DHT22;2869;50.432;8.680;2022-08-19T03:32:34;20.00;99.90
5689;DHT22;2869;50.432;8.680;2022-08-19T03:35:00;20.10;99.90
5689;DHT22;2869;50.432;8.680;2022-08-19T03:37:27;20.10;99.90
5689;DHT22;2869;50.432;8.680;2022-08-19T03:39:56;20.10;99.90
5689;DHT22;2869;50.432;8.680;2022-08-19T03:42:22;20.10;99.90
5689;DHT22;2869;50.432;8.680;2022-08-19T03:44:50;20.00;99.90
5689;DHT22;2869;50.432;8.680;2022-08-19T03:47:17;20.00;99.90
5689;DHT22;2869;50.432;8.680;2022-08-19T03:49:44;20.00;99.90
5689;DHT22;2869;50.432;8.680;2022-08-19T03:52:11;20.00;99.90
5689;DHT22;2869;50.432;8.680;2022-08-19T03:54:39;20.10;99.90
5689;DHT22;2869;50.432;8.680;2022-08-19T03:57:07;20.00;99.90
5689;DHT22;2869;50.432;8.680;2022-08-19T03:59:36;19.90;99.90
5689;DHT22;2869;50.432;8.680;2022-08-19T04:02:06;19.90;99.90
5689;DHT22;2869;50.432;8.680;2022-08-19T04:04:34;19.80;99.90
5689;DHT22;2869;50.432;8.680;2022-08-19T04:07:01;19.90;99.90
5689;DHT22;2869;50.432;8.680;2022-08-19T04:09:27;19.80;99.90
5689;DHT22;2869;50.432;8.680;2022-08-19T04:11:56;19.80;99.90
5689;DHT22;2869;50.432;8.680;2022-08-19T04:14:27;19.80;99.90
5689;DHT22;2869;50.432;8.680;2022-08-19T04:16:55;19.80;99.90
5689;DHT22;2869;50.432;8.680;2022-08-19T04:19:22;19.70;99.90
5689;DHT22;2869;50.432;8.680;2022-08-19T04:21:50;19.70;99.90
5689;DHT22;2869;50.432;8.680;2022-08-19T04:24:19;19.70;99.90
5689;DHT22;2869;50.432;8.680;2022-08-19T04:26:46;19.70;99.90
5689;DHT22;2869;50.432;8.680;2022-08-19T04:29:15;19.70;99.90
5689;DHT22;2869;50.432;8.680;2022-08-19T04:31:45;19.70;99.90
5689;DHT22;2869;50.432;8.680;2022-08-19T04:34:15;19.60;99.90
5689;DHT22;2869;50.432;8.680;2022-08-19T04:36:43;19.60;99.90
5689;DHT22;2869;50.432;8.680;2022-08-19T04:39:12;19.60;99.90
5689;DHT22;2869;50.432;8.680;2022-08-19T04:41:39;19.50;99.90
5689;DHT22;2869;50.432;8.680;2022-08-19T04:44:23;19.60;99.90
5689;DHT22;2869;50.432;8.680;2022-08-19T04:46:52;19.60;99.90
5689;DHT22;2869;50.432;8.680;2022-08-19T04:49:21;19.60;99.90
5689;DHT22;2869;50.432;8.680;2022-08-19T04:51:49;19.50;99.90
5689;DHT22;2869;50.432;8.680;2022-08-19T04:54:17;19.60;99.90
5689;DHT22;2869;50.432;8.680;2022-08-19T04:56:45;19.50;99.90
5689;DHT22;2869;50.432;8.680;2022-08-19T04:59:15;19.50;99.90
5689;DHT22;2869;50.432;8.680;2022-08-19T05:01:42;19.60;99.90
5689;DHT22;2869;50.432;8.680;2022-08-19T05:04:10;19.60;99.90
5689;DHT22;2869;50.432;8.680;2022-08-19T05:06:39;19.60;99.90
5689;DHT22;2869;50.432;8.680;2022-08-19T05:09:05;19.60;99.90
5689;DHT22;2869;50.432;8.680;2022-08-19T05:11:34;19.60;99.90
5689;DHT22;2869;50.432;8.680;2022-08-19T05:14:04;19.60;99.90
5689;DHT22;2869;50.432;8.680;2022-08-19T05:16:31;19.60;99.90
5689;DHT22;2869;50.432;8.680;2022-08-19T05:18:58;19.70;99.90
5689;DHT22;2869;50.432;8.680;2022-08-19T05:21:44;19.80;99.90
5689;DHT22;2869;50.432;8.680;2022-08-19T05:24:29;19.80;99.90
5689;DHT22;2869;50.432;8.680;2022-08-19T05:26:56;19.90;99.90
5689;DHT22;2869;50.432;8.680;2022-08-19T05:29:25;19.90;99.90
5689;DHT22;2869;50.432;8.680;2022-08-19T05:31:53;20.00;99.90
5689;DHT22;2869;50.432;8.680;2022-08-19T05:34:21;20.10;99.90
5689;DHT22;2869;50.432;8.680;2022-08-19T05:36:52;20.20;99.90
5689;DHT22;2869;50.432;8.680;2022-08-19T05:39:24;20.30;99.90
5689;DHT22;2869;50.432;8.680;2022-08-19T05:41:52;20.50;99.90
5689;DHT22;2869;50.432;8.680;2022-08-19T05:44:20;20.80;99.90
5689;DHT22;2869;50.432;8.680;2022-08-19T05:46:47;21.00;99.90
5689;DHT22;2869;50.432;8.680;2022-08-19T05:49:15;21.30;99.90
5689;DHT22;2869;50.432;8.680;2022-08-19T05:51:42;21.50;99.90
5689;DHT22;2869;50.432;8.680;2022-08-19T05:54:11;21.80;99.90
5689;DHT22;2869;50.432;8.680;2022-08-19T05:56:39;22.00;99.90
5689;DHT22;2869;50.432;8.680;2022-08-19T05:59:08;22.30;99.90
5689;DHT22;2869;50.432;8.680;2022-08-19T06:01:37;22.50;99.90
5689;DHT22;2869;50.432;8.680;2022-08-19T06:04:05;22.70;99.90
5689;DHT22;2869;50.432;8.680;2022-08-19T06:06:32;22.90;99.90
5689;DHT22;2869;50.432;8.680;2022-08-19T06:08:59;23.00;99.90
5689;DHT22;2869;50.432;8.680;2022-08-19T06:11:35;23.10;99.90
5689;DHT22;2869;50.432;8.680;2022-08-19T06:14:04;23.20;99.90
5689;DHT22;2869;50.432;8.680;2022-08-19T06:16:33;23.40;99.90
5689;DHT22;2869;50.432;8.680;2022-08-19T06:19:02;23.50;99.90
5689;DHT22;2869;50.432;8.680;2022-08-19T06:21:30;23.70;99.90
5689;DHT22;2869;50.432;8.680;2022-08-19T06:23:58;23.90;99.90
5689;DHT22;2869;50.432;8.680;2022-08-19T06:26:25;24.10;99.90
5689;DHT22;2869;50.432;8.680;2022-08-19T06:28:54;24.20;99.90
5689;DHT22;2869;50.432;8.680;2022-08-19T06:31:22;24.30;99.90
5689;DHT22;2869;50.432;8.680;2022-08-19T06:33:49;24.50;99.90
5689;DHT22;2869;50.432;8.680;2022-08-19T06:36:18;24.50;99.90
5689;DHT22;2869;50.432;8.680;2022-08-19T06:38:45;24.30;99.90
5689;DHT22;2869;50.432;8.680;2022-08-19T06:41:12;24.20;99.90
5689;DHT22;2869;50.432;8.680;2022-08-19T06:43:39;24.20;99.90
5689;DHT22;2869;50.432;8.680;2022-08-19T06:46:11;24.20;99.90
5689;DHT22;2869;50.432;8.680;2022-08-19T06:48:38;24.10;99.90
5689;DHT22;2869;50.432;8.680;2022-08-19T06:51:05;24.20;99.90
5689;DHT22;2869;50.432;8.680;2022-08-19T06:53:32;24.10;99.90
5689;DHT22;2869;50.432;8.680;2022-08-19T06:55:59;24.00;99.90
5689;DHT22;2869;50.432;8.680;2022-08-19T06:58:28;24.10;99.90
5689;DHT22;2869;50.432;8.680;2022-08-19T07:00:58;24.10;99.90
5689;DHT22;2869;50.432;8.680;2022-08-19T07:03:29;24.30;99.90
5689;DHT22;2869;50.432;8.680;2022-08-19T07:05:56;24.40;99.90
5689;DHT22;2869;50.432;8.680;2022-08-19T07:08:24;24.50;99.90
5689;DHT22;2869;50.432;8.680;2022-08-19T07:10:52;24.60;99.90
5689;DHT22;2869;50.432;8.680;2022-08-19T07:13:20;24.60;99.90
5689;DHT22;2869;50.432;8.680;2022-08-19T07:15:47;24.80;99.90
5689;DHT22;2869;50.432;8.680;2022-08-19T07:18:16;25.00;99.90
5689;DHT22;2869;50.432;8.680;2022-08-19T07:20:44;25.20;99.90
5689;DHT22;2869;50.432;8.680;2022-08-19T07:23:10;25.30;99.90
5689;DHT22;2869;50.432;8.680;2022-08-19T07:25:38;25.40;99.90
5689;DHT22;2869;50.432;8.680;2022-08-19T07:28:04;25.50;99.90
5689;DHT22;2869;50.432;8.680;2022-08-19T07:30:35;25.60;99.90
5689;DHT22;2869;50.432;8.680;2022-08-19T07:33:02;25.90;99.90
5689;DHT22;2869;50.432;8.680;2022-08-19T07:35:28;26.00;99.90
5689;DHT22;2869;50.432;8.680;2022-08-19T07:37:59;26.10;99.90
5689;DHT22;2869;50.432;8.680;2022-08-19T07:40:27;26.10;99.90
5689;DHT22;2869;50.432;8.680;2022-08-19T07:42:54;26.10;99.90
5689;DHT22;2869;50.432;8.680;2022-08-19T07:45:21;26.20;99.90
5689;DHT22;2869;50.432;8.680;2022-08-19T07:47:48;26.40;99.90
5689;DHT22;2869;50.432;8.680;2022-08-19T07:50:16;26.50;99.90
5689;DHT22;2869;50.432;8.680;2022-08-19T07:52:43;26.60;99.90
5689;DHT22;2869;50.432;8.680;2022-08-19T07:55:12;26.70;99.90
5689;DHT22;2869;50.432;8.680;2022-08-19T07:57:38;26.70;99.90
5689;DHT22;2869;50.432;8.680;2022-08-19T08:00:06;26.80;99.90
5689;DHT22;2869;50.432;8.680;2022-08-19T08:02:33;26.80;99.90
5689;DHT22;2869;50.432;8.680;2022-08-19T08:05:00;26.70;99.90
5689;DHT22;2869;50.432;8.680;2022-08-19T08:07:44;26.80;99.90
5689;DHT22;2869;50.432;8.680;2022-08-19T08:10:29;26.80;99.90
5689;DHT22;2869;50.432;8.680;2022-08-19T08:12:56;27.00;99.90
5689;DHT22;2869;50.432;8.680;2022-08-19T08:15:23;26.90;99.90
5689;DHT22;2869;50.432;8.680;2022-08-19T08:17:49;26.80;99.90
5689;DHT22;2869;50.432;8.680;2022-08-19T08:20:16;26.70;99.90
5689;DHT22;2869;50.432;8.680;2022-08-19T08:22:44;26.60;99.90
5689;DHT22;2869;50.432;8.680;2022-08-19T08:25:30;26.60;99.90
5689;DHT22;2869;50.432;8.680;2022-08-19T08:27:57;26.90;99.90
5689;DHT22;2869;50.432;8.680;2022-08-19T08:30:27;27.00;99.90
5689;DHT22;2869;50.432;8.680;2022-08-19T08:32:54;27.20;99.90
5689;DHT22;2869;50.432;8.680;2022-08-19T08:35:23;27.20;99.90
5689;DHT22;2869;50.432;8.680;2022-08-19T08:37:51;27.30;99.90
5689;DHT22;2869;50.432;8.680;2022-08-19T08:40:23;27.40;99.90
5689;DHT22;2869;50.432;8.680;2022-08-19T08:42:58;27.30;99.90
5689;DHT22;2869;50.432;8.680;2022-08-19T08:45:28;27.30;99.90
5689;DHT22;2869;50.432;8.680;2022-08-19T08:48:02;27.40;99.90
5689;DHT22;2869;50.432;8.680;2022-08-19T08:50:34;27.40;99.90
5689;DHT22;2869;50.432;8.680;2022-08-19T08:53:03;27.40;99.90
5689;DHT22;2869;50.432;8.680;2022-08-19T08:55:31;27.70;99.90
5689;DHT22;2869;50.432;8.680;2022-08-19T08:58:03;28.00;99.90
5689;DHT22;2869;50.432;8.680;2022-08-19T09:00:34;28.10;99.90
5689;DHT22;2869;50.432;8.680;2022-08-19T09:03:02;28.40;99.90
5689;DHT22;2869;50.432;8.680;2022-08-19T09:05:40;28.40;99.90
5689;DHT22;2869;50.432;8.680;2022-08-19T09:08:13;28.50;99.90
5689;DHT22;2869;50.432;8.680;2022-08-19T09:10:44;28.40;99.90
5689;DHT22;2869;50.432;8.680;2022-08-19T09:13:20;28.80;99.90
5689;DHT22;2869;50.432;8.680;2022-08-19T09:15:52;29.00;99.90
5689;DHT22;2869;50.432;8.680;2022-08-19T09:18:20;29.20;99.90
5689;DHT22;2869;50.432;8.680;2022-08-19T09:20:47;29.10;99.90
5689;DHT22;2869;50.432;8.680;2022-08-19T09:23:13;28.80;99.90
5689;DHT22;2869;50.432;8.680;2022-08-19T09:25:40;28.60;99.90
5689;DHT22;2869;50.432;8.680;2022-08-19T09:28:07;28.80;99.90
5689;DHT22;2869;50.432;8.680;2022-08-19T09:30:39;29.10;99.90
5689;DHT22;2869;50.432;8.680;2022-08-19T09:33:07;29.40;99.90
5689;DHT22;2869;50.432;8.680;2022-08-19T09:35:34;29.50;99.90
5689;DHT22;2869;50.432;8.680;2022-08-19T09:38:01;29.70;99.90
5689;DHT22;2869;50.432;8.680;2022-08-19T09:40:28;29.80;99.90
5689;DHT22;2869;50.432;8.680;2022-08-19T09:42:55;29.80;99.90
5689;DHT22;2869;50.432;8.680;2022-08-19T09:45:27;29.90;99.90
5689;DHT22;2869;50.432;8.680;2022-08-19T09:47:56;30.00;99.90
5689;DHT22;2869;50.432;8.680;2022-08-19T09:50:23;30.10;99.90
5689;DHT22;2869;50.432;8.680;2022-08-19T09:52:50;30.20;99.90
5689;DHT22;2869;50.432;8.680;2022-08-19T09:55:18;30.20;99.90
5689;DHT22;2869;50.432;8.680;2022-08-19T09:57:45;30.20;99.90
5689;DHT22;2869;50.432;8.680;2022-08-19T10:00:12;30.30;99.90
5689;DHT22;2869;50.432;8.680;2022-08-19T10:02:39;30.30;99.90
5689;DHT22;2869;50.432;8.680;2022-08-19T10:05:08;30.30;99.90
5689;DHT22;2869;50.432;8.680;2022-08-19T10:07:52;30.40;99.90
5689;DHT22;2869;50.432;8.680;2022-08-19T10:10:19;30.60;99.90
5689;DHT22;2869;50.432;8.680;2022-08-19T10:12:46;30.50;99.90
5689;DHT22;2869;50.432;8.680;2022-08-19T10:15:13;30.50;99.90
5689;DHT22;2869;50.432;8.680;2022-08-19T10:17:39;30.60;99.90
5689;DHT22;2869;50.432;8.680;2022-08-19T10:20:08;30.60;99.90
5689;DHT22;2869;50.432;8.680;2022-08-19T10:22:35;30.60;99.90
5689;DHT22;2869;50.432;8.680;2022-08-19T10:25:04;30.70;99.90
5689;DHT22;2869;50.432;8.680;2022-08-19T10:27:31;30.60;99.90
5689;DHT22;2869;50.432;8.680;2022-08-19T10:29:57;30.40;99.90
5689;DHT22;2869;50.432;8.680;2022-08-19T10:32:24;30.00;99.90
5689;DHT22;2869;50.432;8.680;2022-08-19T10:34:51;30.00;99.90
5689;DHT22;2869;50.432;8.680;2022-08-19T10:37:19;29.90;99.90
5689;DHT22;2869;50.432;8.680;2022-08-19T10:39:46;29.90;99.90
5689;DHT22;2869;50.432;8.680;2022-08-19T10:42:13;29.90;99.90
5689;DHT22;2869;50.432;8.680;2022-08-19T10:44:42;29.80;99.90
5689;DHT22;2869;50.432;8.680;2022-08-19T10:47:09;29.70;99.90
5689;DHT22;2869;50.432;8.680;2022-08-19T10:49:35;29.60;99.90
5689;DHT22;2869;50.432;8.680;2022-08-19T10:52:24;29.50;99.90
5689;DHT22;2869;50.432;8.680;2022-08-19T10:54:59;29.70;99.90
5689;DHT22;2869;50.432;8.680;2022-08-19T10:57:43;29.70;99.90
5689;DHT22;2869;50.432;8.680;2022-08-19T11:00:12;29.80;99.90
5689;DHT22;2869;50.432;8.680;2022-08-19T11:02:39;29.90;99.90
5689;DHT22;2869;50.432;8.680;2022-08-19T11:05:08;29.80;99.90
5689;DHT22;2869;50.432;8.680;2022-08-19T11:07:37;29.70;99.90
5689;DHT22;2869;50.432;8.680;2022-08-19T11:10:05;29.70;99.90
5689;DHT22;2869;50.432;8.680;2022-08-19T11:12:31;29.60;99.90
5689;DHT22;2869;50.432;8.680;2022-08-19T11:14:58;29.50;99.90
5689;DHT22;2869;50.432;8.680;2022-08-19T11:17:25;29.40;99.90
5689;DHT22;2869;50.432;8.680;2022-08-19T11:19:52;29.60;99.90
5689;DHT22;2869;50.432;8.680;2022-08-19T11:22:18;29.90;99.90
5689;DHT22;2869;50.432;8.680;2022-08-19T11:24:46;30.20;99.90
5689;DHT22;2869;50.432;8.680;2022-08-19T11:27:13;30.20;99.90
5689;DHT22;2869;50.432;8.680;2022-08-19T11:29:40;30.00;99.90
5689;DHT22;2869;50.432;8.680;2022-08-19T11:32:09;29.80;99.90
5689;DHT22;2869;50.432;8.680;2022-08-19T11:34:37;30.10;99.90
5689;DHT22;2869;50.432;8.680;2022-08-19T11:37:04;30.60;99.90
5689;DHT22;2869;50.432;8.680;2022-08-19T11:39:33;31.10;99.90
5689;DHT22;2869;50.432;8.680;2022-08-19T11:42:03;31.30;99.90
5689;DHT22;2869;50.432;8.680;2022-08-19T11:44:50;31.20;99.90
5689;DHT22;2869;50.432;8.680;2022-08-19T11:47:16;31.40;99.90
5689;DHT22;2869;50.432;8.680;2022-08-19T11:49:43;31.60;99.90
5689;DHT22;2869;50.432;8.680;2022-08-19T11:52:10;31.50;99.60
5689;DHT22;2869;50.432;8.680;2022-08-19T11:54:36;31.30;99.90
5689;DHT22;2869;50.432;8.680;2022-08-19T11:57:04;31.10;99.90
5689;DHT22;2869;50.432;8.680;2022-08-19T11:59:31;31.30;99.90
5689;DHT22;2869;50.432;8.680;2022-08-19T12:01:58;31.60;99.40
5689;DHT22;2869;50.432;8.680;2022-08-19T12:04:25;31.60;99.10
5689;DHT22;2869;50.432;8.680;2022-08-19T12:06:51;31.30;98.40
5689;DHT22;2869;50.432;8.680;2022-08-19T12:09:18;31.10;98.80
5689;DHT22;2869;50.432;8.680;2022-08-19T12:11:45;31.10;98.00
5689;DHT22;2869;50.432;8.680;2022-08-19T12:14:13;31.20;98.10
5689;DHT22;2869;50.432;8.680;2022-08-19T12:16:40;31.10;98.40
5689;DHT22;2869;50.432;8.680;2022-08-19T12:19:07;31.40;98.00
5689;DHT22;2869;50.432;8.680;2022-08-19T12:21:35;31.10;97.80
5689;DHT22;2869;50.432;8.680;2022-08-19T12:24:03;30.60;98.70
5689;DHT22;2869;50.432;8.680;2022-08-19T12:26:30;30.40;98.90
5689;DHT22;2869;50.432;8.680;2022-08-19T12:28:58;30.60;99.80
5689;DHT22;2869;50.432;8.680;2022-08-19T12:31:26;31.10;98.10
5689;DHT22;2869;50.432;8.680;2022-08-19T12:33:54;31.60;97.50
5689;DHT22;2869;50.432;8.680;2022-08-19T12:36:20;31.70;97.00
5689;DHT22;2869;50.432;8.680;2022-08-19T12:38:48;31.30;96.80
5689;DHT22;2869;50.432;8.680;2022-08-19T12:41:16;31.00;97.70
5689;DHT22;2869;50.432;8.680;2022-08-19T12:43:44;30.50;97.90
5689;DHT22;2869;50.432;8.680;2022-08-19T12:46:11;30.20;98.50
5689;DHT22;2869;50.432;8.680;2022-08-19T12:48:39;29.90;98.90
5689;DHT22;2869;50.432;8.680;2022-08-19T12:51:10;29.70;99.00
5689;DHT22;2869;50.432;8.680;2022-08-19T12:53:38;29.60;99.20
5689;DHT22;2869;50.432;8.680;2022-08-19T12:56:05;29.80;99.60
5689;DHT22;2869;50.432;8.680;2022-08-19T12:58:32;30.10;98.90
5689;DHT22;2869;50.432;8.680;2022-08-19T13:00:59;30.20;98.30
5689;DHT22;2869;50.432;8.680;2022-08-19T13:03:26;30.30;98.80
5689;DHT22;2869;50.432;8.680;2022-08-19T13:05:56;30.30;98.60
5689;DHT22;2869;50.432;8.680;2022-08-19T13:08:23;30.20;98.40
5689;DHT22;2869;50.432;8.680;2022-08-19T13:10:49;30.30;98.40
5689;DHT22;2869;50.432;8.680;2022-08-19T13:13:16;30.50;98.70
5689;DHT22;2869;50.432;8.680;2022-08-19T13:15:43;30.60;97.50
5689;DHT22;2869;50.432;8.680;2022-08-19T13:18:11;30.60;97.10
5689;DHT22;2869;50.432;8.680;2022-08-19T13:20:38;30.50;97.60
5689;DHT22;2869;50.432;8.680;2022-08-19T13:23:07;30.30;97.60
5689;DHT22;2869;50.432;8.680;2022-08-19T13:25:34;30.00;97.40
5689;DHT22;2869;50.432;8.680;2022-08-19T13:28:02;29.80;97.70
5689;DHT22;2869;50.432;8.680;2022-08-19T13:30:29;29.50;98.00
5689;DHT22;2869;50.432;8.680;2022-08-19T13:33:13;29.30;98.10
5689;DHT22;2869;50.432;8.680;2022-08-19T13:35:43;29.00;98.40
5689;DHT22;2869;50.432;8.680;2022-08-19T13:38:12;28.90;98.30
5689;DHT22;2869;50.432;8.680;2022-08-19T13:40:39;28.90;98.20
5689;DHT22;2869;50.432;8.680;2022-08-19T13:43:07;28.80;98.00
5689;DHT22;2869;50.432;8.680;2022-08-19T13:45:35;28.80;98.00
5689;DHT22;2869;50.432;8.680;2022-08-19T13:48:04;28.90;97.70
5689;DHT22;2869;50.432;8.680;2022-08-19T13:50:33;28.80;97.60
5689;DHT22;2869;50.432;8.680;2022-08-19T13:53:02;28.70;97.60
5689;DHT22;2869;50.432;8.680;2022-08-19T13:55:30;28.70;97.60
5689;DHT22;2869;50.432;8.680;2022-08-19T13:57:59;28.70;97.40
5689;DHT22;2869;50.432;8.680;2022-08-19T14:00:30;28.60;97.40
5689;DHT22;2869;50.432;8.680;2022-08-19T14:02:58;28.50;97.50
5689;DHT22;2869;50.432;8.680;2022-08-19T14:05:26;28.50;97.30
5689;DHT22;2869;50.432;8.680;2022-08-19T14:07:53;28.40;97.60
5689;DHT22;2869;50.432;8.680;2022-08-19T14:10:21;28.30;98.00
5689;DHT22;2869;50.432;8.680;2022-08-19T14:12:52;28.20;98.00
5689;DHT22;2869;50.432;8.680;2022-08-19T14:15:20;28.10;98.30
5689;DHT22;2869;50.432;8.680;2022-08-19T14:17:48;28.00;98.60
5689;DHT22;2869;50.432;8.680;2022-08-19T14:20:15;28.00;98.80
5689;DHT22;2869;50.432;8.680;2022-08-19T14:22:43;27.90;98.70
5689;DHT22;2869;50.432;8.680;2022-08-19T14:25:12;27.80;98.70
5689;DHT22;2869;50.432;8.680;2022-08-19T14:27:40;27.80;99.00
5689;DHT22;2869;50.432;8.680;2022-08-19T14:30:13;27.80;98.80
5689;DHT22;2869;50.432;8.680;2022-08-19T14:32:40;27.70;99.00
5689;DHT22;2869;50.432;8.680;2022-08-19T14:35:09;27.70;99.20
5689;DHT22;2869;50.432;8.680;2022-08-19T14:37:38;27.70;98.80
5689;DHT22;2869;50.432;8.680;2022-08-19T14:40:06;27.70;99.30
5689;DHT22;2869;50.432;8.680;2022-08-19T14:42:33;27.70;99.00
5689;DHT22;2869;50.432;8.680;2022-08-19T14:45:00;27.80;98.90
5689;DHT22;2869;50.432;8.680;2022-08-19T14:47:28;27.90;98.70
5689;DHT22;2869;50.432;8.680;2022-08-19T14:49:55;28.00;98.80
5689;DHT22;2869;50.432;8.680;2022-08-19T14:52:21;28.10;98.80
5689;DHT22;2869;50.432;8.680;2022-08-19T14:54:48;28.30;99.30
5689;DHT22;2869;50.432;8.680;2022-08-19T14:57:15;28.50;98.60
5689;DHT22;2869;50.432;8.680;2022-08-19T14:59:42;28.70;98.40
5689;DHT22;2869;50.432;8.680;2022-08-19T15:02:08;28.90;97.70
5689;DHT22;2869;50.432;8.680;2022-08-19T15:04:36;29.20;97.80
5689;DHT22;2869;50.432;8.680;2022-08-19T15:07:04;29.30;97.30
5689;DHT22;2869;50.432;8.680;2022-08-19T15:09:31;29.40;97.70
5689;DHT22;2869;50.432;8.680;2022-08-19T15:11:58;29.50;97.70
5689;DHT22;2869;50.432;8.680;2022-08-19T15:14:26;29.50;97.50
5689;DHT22;2869;50.432;8.680;2022-08-19T15:16:53;29.60;98.00
5689;DHT22;2869;50.432;8.680;2022-08-19T15:19:20;29.70;98.10
5689;DHT22;2869;50.432;8.680;2022-08-19T15:21:48;29.80;98.30
5689;DHT22;2869;50.432;8.680;2022-08-19T15:24:14;29.80;97.90
5689;DHT22;2869;50.432;8.680;2022-08-19T15:26:41;29.70;97.20
5689;DHT22;2869;50.432;8.680;2022-08-19T15:29:08;29.60;98.10
5689;DHT22;2869;50.432;8.680;2022-08-19T15:31:34;29.40;98.50
5689;DHT22;2869;50.432;8.680;2022-08-19T15:34:02;29.40;98.60
5689;DHT22;2869;50.432;8.680;2022-08-19T15:36:31;29.40;98.00
5689;DHT22;2869;50.432;8.680;2022-08-19T15:39:01;29.40;97.70
5689;DHT22;2869;50.432;8.680;2022-08-19T15:41:30;29.40;97.80
5689;DHT22;2869;50.432;8.680;2022-08-19T15:43:58;29.40;98.00
5689;DHT22;2869;50.432;8.680;2022-08-19T15:46:30;29.40;97.40
5689;DHT22;2869;50.432;8.680;2022-08-19T15:48:57;29.40;97.40
5689;DHT22;2869;50.432;8.680;2022-08-19T15:51:25;29.50;97.70
5689;DHT22;2869;50.432;8.680;2022-08-19T15:53:52;29.40;97.70
5689;DHT22;2869;50.432;8.680;2022-08-19T15:56:21;29.40;98.00
5689;DHT22;2869;50.432;8.680;2022-08-19T15:58:47;29.40;97.80
5689;DHT22;2869;50.432;8.680;2022-08-19T16:01:32;29.20;97.30
5689;DHT22;2869;50.432;8.680;2022-08-19T16:04:16;29.20;97.70
5689;DHT22;2869;50.432;8.680;2022-08-19T16:07:00;29.10;97.70
5689;DHT22;2869;50.432;8.680;2022-08-19T16:09:29;29.00;97.50